Time;durP1;ratioP1;P1;durP2;ratioP2;P2;SDS_P1;SDS_P2;PMS_P1;PMS_P2;Temp;Humidity;BMP_temperature;BMP_pressure;BME280_temperature;BME280_humidity;BME280_pressure;Samples;Min_cycle;Max_cycle;Signal;HPM_P1;HPM_P2
2023/08/04 00:02:19;;;;;;;15.90;14.50;;;;;;;20.79;100.00;100086.95;104535;1265;60570;-63
2023/08/04 00:04:46;;;;;;;15.90;14.30;;;;;;;20.75;100.00;100084.23;104319;1269;73794;-64
2023/08/04 00:07:14;;;;;;;15.30;13.90;;;;;;;20.70;100.00;100086.67;104537;1267;66508;-65
2023/08/04 00:09:40;;;;;;;14.30;13.00;;;;;;;20.64;100.00;100085.73;104557;1265;72456;-63
2023/08/04 00:12:08;;;;;;;15.70;14.00;;;;;;;20.58;100.00;100090.24;104875;1265;61851;-68
2023/08/04 00:14:34;;;;;;;14.60;13.30;;;;;;;20.54;100.00;100095.03;104586;1266;60592;-64
2023/08/04 00:17:01;;;;;;;14.10;12.60;;;;;;;20.53;100.00;100102.02;104680;1265;73038;-65
2023/08/04 00:19:28;;;;;;;14.20;12.90;;;;;;;20.50;100.00;100101.20;104659;1265;67054;-63
2023/08/04 00:21:56;;;;;;;15.20;13.40;;;;;;;20.47;100.00;100097.21;104674;1265;72743;-63
2023/08/04 00:24:22;;;;;;;15.20;13.00;;;;;;;20.42;100.00;100101.26;104781;1265;62057;-64
2023/08/04 00:26:49;;;;;;;14.30;12.70;;;;;;;20.40;100.00;100107.27;104806;1265;60561;-66
2023/08/04 00:29:16;;;;;;;14.60;13.20;;;;;;;20.38;100.00;100109.00;104241;1270;73929;-64
2023/08/04 00:31:43;;;;;;;14.50;12.50;;;;;;;20.38;100.00;100106.73;104490;1265;67400;-63
2023/08/04 00:34:10;;;;;;;16.20;14.10;;;;;;;20.36;100.00;100107.98;104783;1265;72548;-67
2023/08/04 00:36:37;;;;;;;16.00;14.50;;;;;;;20.33;100.00;100113.66;104443;1269;60944;-64
2023/08/04 00:39:04;;;;;;;15.40;13.80;;;;;;;20.32;100.00;100116.52;104689;1269;60461;-65
2023/08/04 00:41:31;;;;;;;15.90;14.20;;;;;;;20.30;100.00;100120.67;104475;1270;71991;-64
2023/08/04 00:43:58;;;;;;;15.30;13.50;;;;;;;20.25;100.00;100120.64;104512;1269;65826;-64
2023/08/04 00:46:26;;;;;;;15.20;13.70;;;;;;;20.21;100.00;100118.38;104578;1265;71630;-64
2023/08/04 00:48:53;;;;;;;14.70;13.00;;;;;;;20.18;100.00;100125.91;104374;1272;60842;-61
2023/08/04 00:51:20;;;;;;;14.80;13.30;;;;;;;20.14;100.00;100131.21;104610;1264;60375;-63
2023/08/04 00:53:46;;;;;;;15.10;13.50;;;;;;;20.11;100.00;100132.41;104586;1265;73892;-61
2023/08/04 00:56:13;;;;;;;14.00;12.80;;;;;;;20.09;100.00;100135.72;104682;1269;65729;-61
2023/08/04 00:58:41;;;;;;;14.70;13.20;;;;;;;20.06;100.00;100133.46;104597;1269;72701;-64
2023/08/04 01:01:08;;;;;;;15.00;13.60;;;;;;;20.04;100.00;100130.63;104617;1265;62089;-62
2023/08/04 01:03:37;;;;;;;14.40;12.90;;;;;;;20.01;100.00;100134.89;104506;1264;60588;-61
2023/08/04 01:06:29;;;;;;;13.80;12.40;;;;;;;19.98;100.00;100133.05;104446;1267;73888;-61
2023/08/04 01:09:14;;;;;;;13.60;12.40;;;;;;;19.96;100.00;100135.84;104660;1269;66501;-64
2023/08/04 01:11:46;;;;;;;14.20;12.70;;;;;;;19.95;100.00;100135.83;104548;1270;72688;-63
2023/08/04 01:14:13;;;;;;;13.60;12.20;;;;;;;19.94;100.00;100134.17;104815;1265;63162;-64
2023/08/04 01:16:40;;;;;;;13.50;12.30;;;;;;;19.93;100.00;100134.29;104739;1265;60423;-67
2023/08/04 01:19:07;;;;;;;13.90;12.50;;;;;;;19.95;100.00;100142.23;104692;1264;72471;-63
2023/08/04 01:21:41;;;;;;;13.50;12.10;;;;;;;19.96;100.00;100137.84;104603;1264;67212;-64
2023/08/04 01:24:09;;;;;;;14.20;12.80;;;;;;;19.97;100.00;100145.27;104558;1269;72764;-62
2023/08/04 01:26:39;;;;;;;14.20;12.70;;;;;;;19.95;100.00;100141.38;104655;1265;61378;-63
2023/08/04 01:29:06;;;;;;;15.40;13.90;;;;;;;19.94;100.00;100143.07;104547;1264;60561;-62
2023/08/04 01:31:33;;;;;;;14.50;13.10;;;;;;;19.92;100.00;100145.58;104484;1265;72742;-62
2023/08/04 01:34:01;;;;;;;14.30;12.90;;;;;;;19.92;100.00;100149.23;104568;1264;65812;-63
2023/08/04 01:36:28;;;;;;;13.30;12.10;;;;;;;19.91;100.00;100155.89;104450;1267;72763;-64
2023/08/04 01:38:56;;;;;;;14.40;12.90;;;;;;;19.88;100.00;100153.11;104571;1269;60562;-62
2023/08/04 01:41:23;;;;;;;13.30;12.00;;;;;;;19.85;100.00;100153.23;104498;1265;60570;-62
2023/08/04 01:43:50;;;;;;;14.30;12.90;;;;;;;19.83;100.00;100152.09;105183;1265;73096;-62
2023/08/04 01:46:17;;;;;;;13.30;12.10;;;;;;;19.80;100.00;100150.73;105137;1264;65955;-64
2023/08/04 01:48:44;;;;;;;13.00;11.70;;;;;;;19.78;100.00;100155.73;104182;1265;71611;-63
2023/08/04 01:51:11;;;;;;;14.30;12.90;;;;;;;19.76;100.00;100155.48;104785;1268;61727;-62
2023/08/04 01:53:38;;;;;;;14.30;13.00;;;;;;;19.74;100.00;100157.80;104544;1269;60452;-62
2023/08/04 01:56:05;;;;;;;15.40;13.90;;;;;;;19.73;100.00;100159.69;104532;1264;72812;-63
2023/08/04 01:58:32;;;;;;;14.40;13.10;;;;;;;19.71;100.00;100160.47;104886;1269;65849;-66
2023/08/04 02:00:59;;;;;;;15.60;14.00;;;;;;;19.69;100.00;100165.34;105056;1265;72381;-62
2023/08/04 02:03:26;;;;;;;14.70;13.40;;;;;;;19.65;100.00;100169.27;104616;1269;60752;-63
2023/08/04 02:05:54;;;;;;;13.20;12.00;;;;;;;19.63;100.00;100167.92;104507;1265;60528;-62
2023/08/04 02:08:21;;;;;;;13.30;12.00;;;;;;;19.62;100.00;100166.12;104786;1265;73692;-66
2023/08/04 02:10:49;;;;;;;12.90;11.50;;;;;;;19.62;100.00;100168.88;104724;1268;65723;-64
2023/08/04 02:13:16;;;;;;;14.20;12.80;;;;;;;19.65;100.00;100170.34;104601;1269;72640;-63
2023/08/04 02:15:43;;;;;;;13.50;11.60;;;;;;;19.68;100.00;100177.09;105065;1265;61800;-63
2023/08/04 02:18:10;;;;;;;12.70;11.60;;;;;;;19.72;100.00;100178.34;104478;1269;60833;-63
2023/08/04 02:20:37;;;;;;;12.30;11.00;;;;;;;19.76;100.00;100179.88;104665;1265;72760;-65
2023/08/04 02:23:04;;;;;;;13.00;11.70;;;;;;;19.79;100.00;100179.82;104650;1267;67088;-62
2023/08/04 02:25:31;;;;;;;11.30;10.30;;;;;;;19.83;100.00;100182.04;104604;1267;72575;-62
2023/08/04 02:27:58;;;;;;;12.00;10.90;;;;;;;19.87;100.00;100184.46;104616;1264;61998;-63
2023/08/04 02:30:25;;;;;;;11.90;10.60;;;;;;;19.92;100.00;100184.01;105048;1264;60450;-66
2023/08/04 02:32:54;;;;;;;12.00;10.90;;;;;;;19.98;100.00;100185.13;104752;1265;72629;-63
2023/08/04 02:35:21;;;;;;;14.40;10.60;;;;;;;20.04;100.00;100192.70;104461;1265;67359;-62
2023/08/04 02:37:48;;;;;;;11.20;10.20;;;;;;;20.09;100.00;100196.64;104573;1269;72721;-64
2023/08/04 02:40:15;;;;;;;12.30;11.00;;;;;;;20.17;100.00;100200.27;104515;1265;61487;-63
2023/08/04 02:42:42;;;;;;;12.70;11.50;;;;;;;20.27;100.00;100204.88;104904;1268;60439;-67
2023/08/04 02:45:09;;;;;;;11.50;10.40;;;;;;;20.36;100.00;100206.45;104033;1270;74489;-63
2023/08/04 02:47:36;;;;;;;13.30;12.00;;;;;;;20.42;100.00;100203.14;105097;1265;67345;-63
2023/08/04 02:50:05;;;;;;;15.10;13.40;;;;;;;20.46;100.00;100202.70;104511;1265;72684;-63
2023/08/04 02:52:33;;;;;;;12.40;11.30;;;;;;;20.50;100.00;100205.78;105242;1264;60449;-66
2023/08/04 02:55:00;;;;;;;12.10;11.00;;;;;;;20.54;100.00;100207.09;104468;1270;59208;-66
2023/08/04 02:57:31;;;;;;;11.90;10.90;;;;;;;20.61;100.00;100206.59;104859;1265;73758;-63
2023/08/04 02:59:58;;;;;;;12.50;11.30;;;;;;;20.67;100.00;100207.80;104585;1265;67278;-63
2023/08/04 03:02:25;;;;;;;12.90;11.60;;;;;;;20.77;100.00;100210.86;104566;1265;72557;-63
2023/08/04 03:04:52;;;;;;;12.10;10.90;;;;;;;20.89;100.00;100214.42;104945;1265;61874;-63
2023/08/04 03:07:19;;;;;;;12.80;11.60;;;;;;;21.01;100.00;100219.17;104980;1268;60376;-65
2023/08/04 03:09:46;;;;;;;13.50;12.00;;;;;;;21.20;100.00;100220.11;104521;1265;72511;-63
2023/08/04 03:12:13;;;;;;;12.60;11.50;;;;;;;21.49;100.00;100230.05;104537;1267;67120;-63
2023/08/04 03:14:40;;;;;;;13.40;12.10;;;;;;;21.96;100.00;100225.73;104464;1269;71349;-67
2023/08/04 03:17:07;;;;;;;11.50;10.50;;;;;;;22.64;100.00;100222.45;104649;1269;61233;-65
2023/08/04 03:19:34;;;;;;;15.00;12.30;;;;;;;23.54;100.00;100217.92;104598;1265;60372;-63
2023/08/04 03:22:01;;;;;;;11.60;10.50;;;;;;;24.53;100.00;100215.81;104587;1265;74029;-63
2023/08/04 03:24:30;;;;;;;11.30;10.30;;;;;;;25.42;100.00;100214.27;104402;1264;67707;-63
2023/08/04 03:26:57;;;;;;;12.60;10.30;;;;;;;26.18;100.00;100204.96;104870;1267;72717;-67
2023/08/04 03:29:23;;;;;;;11.30;10.20;;;;;;;27.09;100.00;100185.39;104560;1264;61771;-63
2023/08/04 03:31:50;;;;;;;10.40;9.40;;;;;;;28.10;100.00;100163.73;105221;1264;60066;-63
2023/08/04 03:34:17;;;;;;;10.20;9.20;;;;;;;29.09;100.00;100140.00;104749;1267;73684;-63
2023/08/04 03:36:44;;;;;;;9.80;8.80;;;;;;;30.04;100.00;100120.17;104610;1264;67165;-64
2023/08/04 03:39:11;;;;;;;9.40;8.50;;;;;;;31.00;100.00;100103.91;104604;1265;73580;-67
2023/08/04 03:41:38;;;;;;;9.10;8.30;;;;;;;31.89;100.00;100098.64;104475;1269;60781;-63
2023/08/04 03:44:05;;;;;;;9.40;8.20;;;;;;;32.60;100.00;100094.67;104561;1267;59421;-64
2023/08/04 03:46:35;;;;;;;9.10;7.70;;;;;;;33.23;100.00;100095.40;104811;1265;72653;-64
2023/08/04 03:49:02;;;;;;;8.90;7.90;;;;;;;33.76;100.00;100096.83;104662;1265;67271;-67
2023/08/04 03:51:30;;;;;;;8.20;7.40;;;;;;;34.17;100.00;100095.06;104953;1265;64135;-63
2023/08/04 03:53:56;;;;;;;10.30;7.70;;;;;;;34.70;100.00;100098.38;104553;1268;60361;-63
2023/08/04 03:56:23;;;;;;;8.80;8.00;;;;;;;35.34;100.00;100094.30;104828;1265;60465;-64
2023/08/04 03:58:50;;;;;;;8.70;7.50;;;;;;;35.94;100.00;100096.15;104582;1265;65277;-63
2023/08/04 04:01:18;;;;;;;8.60;7.90;;;;;;;36.39;100.00;100099.31;104720;1269;60676;-67
2023/08/04 04:03:45;;;;;;;9.20;8.20;;;;;;;36.99;99.36;100096.27;104522;1265;73424;-63
2023/08/04 04:06:12;;;;;;;7.70;7.10;;;;;;;37.50;94.13;100092.67;104632;1269;60461;-63
2023/08/04 04:08:39;;;;;;;9.20;8.20;;;;;;;37.99;85.60;100092.95;104543;1269;60433;-61
2023/08/04 04:11:06;;;;;;;9.20;8.40;;;;;;;38.43;78.08;100094.89;104563;1266;65298;-60
2023/08/04 04:13:33;;;;;;;9.30;8.60;;;;;;;38.74;70.46;100098.04;104585;1269;60485;-60
2023/08/04 04:16:00;;;;;;;8.80;8.10;;;;;;;38.93;65.79;100104.42;104516;1270;63791;-60
2023/08/04 04:18:28;;;;;;;8.90;8.20;;;;;;;39.15;63.39;100102.46;104596;1269;60350;-62
2023/08/04 04:20:55;;;;;;;8.60;7.90;;;;;;;39.48;59.81;100102.42;104562;1265;60627;-62
2023/08/04 04:23:22;;;;;;;9.00;8.30;;;;;;;39.86;55.85;100103.29;105094;1265;65115;-65
2023/08/04 04:25:50;;;;;;;9.00;8.20;;;;;;;40.22;51.24;100101.52;104595;1268;60568;-63
2023/08/04 04:28:17;;;;;;;9.00;8.20;;;;;;;40.43;47.95;100101.54;104599;1270;63974;-62
2023/08/04 04:30:44;;;;;;;8.80;8.00;;;;;;;40.61;46.68;100100.95;104606;1269;60462;-62
2023/08/04 04:33:11;;;;;;;8.80;8.00;;;;;;;40.88;45.18;100101.79;104561;1266;60744;-62
2023/08/04 04:35:38;;;;;;;9.50;8.70;;;;;;;41.09;43.57;100105.52;104835;1270;65273;-66
2023/08/04 04:38:05;;;;;;;8.90;8.20;;;;;;;41.24;42.07;100106.10;104665;1265;66845;-64
2023/08/04 04:40:32;;;;;;;8.80;8.00;;;;;;;41.38;41.01;100104.59;105126;1265;63800;-62
2023/08/04 04:42:59;;;;;;;8.80;8.10;;;;;;;41.51;40.32;100106.59;104597;1265;60578;-63
2023/08/04 04:45:26;;;;;;;9.20;8.40;;;;;;;41.68;39.95;100109.65;104983;1265;60558;-64
2023/08/04 04:47:55;;;;;;;7.80;7.10;;;;;;;41.88;39.18;100109.25;104439;1265;64071;-63
2023/08/04 04:50:22;;;;;;;7.90;7.30;;;;;;;42.13;38.77;100107.62;104530;1269;60755;-62
2023/08/04 04:52:49;;;;;;;8.20;7.50;;;;;;;42.40;38.13;100108.23;104483;1265;73125;-62
2023/08/04 04:55:16;;;;;;;8.50;7.70;;;;;;;42.75;37.14;100107.61;104679;1265;60571;-62
2023/08/04 04:57:43;;;;;;;9.50;8.70;;;;;;;43.13;35.79;100109.77;104771;1269;60468;-66
2023/08/04 05:00:11;;;;;;;8.90;7.90;;;;;;;43.39;34.57;100111.61;104459;1265;63973;-63
2023/08/04 05:02:38;;;;;;;7.80;7.10;;;;;;;43.64;33.78;100112.41;104565;1265;60891;-62
2023/08/04 05:05:06;;;;;;;8.20;7.50;;;;;;;43.84;32.82;100105.73;104643;1265;64240;-62
2023/08/04 05:07:33;;;;;;;6.90;6.30;;;;;;;44.00;32.31;100107.46;104990;1269;60460;-65
2023/08/04 05:10:00;;;;;;;7.90;7.20;;;;;;;44.35;31.80;100108.77;104185;1267;60313;-63
2023/08/04 05:12:27;;;;;;;7.40;6.60;;;;;;;44.59;30.96;100102.93;104580;1265;65508;-62
2023/08/04 05:14:54;;;;;;;7.50;6.90;;;;;;;44.70;30.52;100100.34;105112;1265;60483;-62
2023/08/04 05:17:21;;;;;;;8.50;7.90;;;;;;;44.77;30.04;100097.70;104574;1269;199433;-62
2023/08/04 05:19:48;;;;;;;7.00;6.40;;;;;;;44.87;30.06;100096.96;104570;1270;59686;-66
2023/08/04 05:22:15;;;;;;;7.90;7.20;;;;;;;45.00;29.59;100098.36;104534;1268;60378;-63
2023/08/04 05:24:42;;;;;;;7.30;6.70;;;;;;;45.02;29.52;100102.52;104579;1269;65339;-63
2023/08/04 05:27:11;;;;;;;6.80;6.20;;;;;;;45.16;29.38;100104.63;104513;1265;61086;-62
2023/08/04 05:29:38;;;;;;;7.30;6.70;;;;;;;45.18;29.44;100106.54;104953;1271;62744;-65
2023/08/04 05:32:06;;;;;;;7.30;6.70;;;;;;;45.04;29.38;100104.10;104458;1266;60487;-62
2023/08/04 05:34:33;;;;;;;7.10;6.30;;;;;;;44.86;29.44;100104.77;105189;1265;60776;-62
2023/08/04 05:37:00;;;;;;;7.20;6.50;;;;;;;44.72;29.61;100101.65;104598;1264;65302;-62
2023/08/04 05:39:27;;;;;;;7.30;6.60;;;;;;;44.57;30.08;100102.75;104330;1265;60455;-62
2023/08/04 05:41:54;;;;;;;7.90;7.20;;;;;;;44.50;30.47;100107.27;104900;1270;64067;-62
2023/08/04 05:44:22;;;;;;;6.90;6.40;;;;;;;44.60;30.49;100105.44;104221;1269;60553;-61
2023/08/04 05:46:49;;;;;;;8.30;7.60;;;;;;;44.81;30.17;100106.67;104638;1269;60459;-61
2023/08/04 05:49:17;;;;;;;7.30;6.70;;;;;;;44.95;29.97;100110.19;104493;1264;65313;-62
2023/08/04 05:51:45;;;;;;;6.80;6.30;;;;;;;45.03;29.77;100111.27;105129;1265;60459;-65
2023/08/04 05:54:12;;;;;;;7.90;7.30;;;;;;;45.03;29.74;100110.88;105092;1269;64403;-64
2023/08/04 05:56:39;;;;;;;7.70;7.10;;;;;;;45.02;29.85;100112.80;104574;1270;60430;-61
2023/08/04 05:59:06;;;;;;;8.10;7.40;;;;;;;45.03;29.99;100113.09;104781;1270;60469;-61
2023/08/04 06:01:33;;;;;;;8.90;7.90;;;;;;;45.09;29.88;100109.09;104530;1265;65332;-62
2023/08/04 06:04:00;;;;;;;7.90;7.20;;;;;;;45.06;30.00;100112.19;104937;1269;60573;-63
2023/08/04 06:06:28;;;;;;;7.80;7.10;;;;;;;45.13;30.14;100107.52;104494;1270;62864;-63
2023/08/04 06:08:55;;;;;;;9.00;8.20;;;;;;;45.33;29.70;100108.14;104597;1269;60463;-61
2023/08/04 06:11:22;;;;;;;8.90;8.00;;;;;;;45.35;29.23;100108.23;104418;1265;60439;-61
2023/08/04 06:13:49;;;;;;;8.20;7.40;;;;;;;45.18;29.28;100107.80;105130;1267;65627;-61
2023/08/04 06:16:16;;;;;;;8.20;7.50;;;;;;;45.08;28.95;100110.36;104792;1267;60480;-65
2023/08/04 06:18:43;;;;;;;7.50;6.90;;;;;;;44.96;28.83;100107.19;104559;1265;64643;-61
2023/08/04 06:21:10;;;;;;;6.30;5.80;;;;;;;44.90;29.17;100109.09;104513;1265;59233;-61
2023/08/04 06:23:41;;;;;;;6.20;5.80;;;;;;;44.96;28.25;100108.20;104584;1264;60460;-60
2023/08/04 06:26:08;;;;;;;6.60;6.10;;;;;;;45.10;27.63;100112.29;105058;1268;65656;-64
2023/08/04 06:28:35;;;;;;;6.80;6.20;;;;;;;45.14;27.33;100110.71;104294;1265;60472;-63
2023/08/04 06:31:02;;;;;;;6.70;5.90;;;;;;;45.07;27.48;100112.48;104614;1270;63991;-62
2023/08/04 06:33:29;;;;;;;7.20;6.10;;;;;;;45.05;27.27;100116.45;104590;1265;59576;-62
2023/08/04 06:35:56;;;;;;;5.90;5.40;;;;;;;45.09;26.94;100116.55;104565;1265;60581;-61
2023/08/04 06:38:23;;;;;;;5.50;5.00;;;;;;;45.14;26.75;100115.73;105076;1267;65355;-61
2023/08/04 06:40:50;;;;;;;4.60;4.10;;;;;;;45.18;26.55;100114.25;105030;1267;60386;-63
2023/08/04 06:43:17;;;;;;;5.40;4.90;;;;;;;45.26;25.88;100115.83;104719;1265;62914;-61
2023/08/04 06:45:44;;;;;;;4.70;4.30;;;;;;;45.25;25.72;100117.25;104745;1265;60591;-62
2023/08/04 06:48:11;;;;;;;4.50;4.10;;;;;;;45.23;25.28;100118.70;104582;1266;61426;-66
2023/08/04 06:50:38;;;;;;;5.00;4.30;;;;;;;45.14;24.82;100122.17;104645;1265;66208;-66
2023/08/04 06:53:05;;;;;;;4.80;4.40;;;;;;;45.05;25.14;100124.08;104839;1265;60558;-63
2023/08/04 06:55:33;;;;;;;5.20;4.70;;;;;;;44.96;25.53;100129.50;104968;1265;63901;-63
2023/08/04 06:58:01;;;;;;;5.40;4.90;;;;;;;44.97;25.44;100130.66;104900;1269;60462;-64
2023/08/04 07:00:28;;;;;;;5.30;4.70;;;;;;;45.11;25.56;100126.48;104712;1265;60548;-66
2023/08/04 07:02:56;;;;;;;5.80;5.20;;;;;;;45.29;25.70;100122.77;104764;1266;65247;-65
2023/08/04 07:05:23;;;;;;;4.70;4.30;;;;;;;45.34;25.45;100122.17;104270;1265;60546;-65
2023/08/04 07:07:51;;;;;;;5.00;4.60;;;;;;;45.23;25.14;100127.27;104889;1265;62863;-63
2023/08/04 07:10:18;;;;;;;5.00;4.50;;;;;;;45.02;25.05;100130.02;104875;1265;60542;-67
2023/08/04 07:12:45;;;;;;;5.10;4.20;;;;;;;44.98;25.36;100127.65;104775;1267;60807;-66
2023/08/04 07:15:12;;;;;;;4.50;4.10;;;;;;;45.12;25.06;100130.48;104712;1265;64058;-64
2023/08/04 07:17:39;;;;;;;4.80;4.40;;;;;;;45.19;24.58;100132.92;104335;1263;60474;-64
2023/08/04 07:20:07;;;;;;;5.00;4.10;;;;;;;45.21;24.41;100134.64;104538;1267;62878;-63
2023/08/04 07:22:34;;;;;;;5.40;4.50;;;;;;;45.30;24.37;100129.65;104624;1271;60586;-65
2023/08/04 07:25:01;;;;;;;4.70;3.90;;;;;;;45.37;24.19;100128.96;105060;1267;60462;-67
2023/08/04 07:27:28;;;;;;;4.50;4.10;;;;;;;45.36;24.33;100132.53;104568;1267;65032;-62
2023/08/04 07:29:55;;;;;;;4.80;4.40;;;;;;;45.35;24.19;100133.80;104536;1265;60568;-63
2023/08/04 07:32:22;;;;;;;5.00;4.30;;;;;;;45.28;24.18;100135.82;104706;1265;63527;-67
2023/08/04 07:34:49;;;;;;;6.10;4.80;;;;;;;45.04;24.39;100138.56;104781;1267;61304;-64
2023/08/04 07:37:16;;;;;;;6.80;5.10;;;;;;;44.72;24.68;100138.15;104710;1269;60471;-62
2023/08/04 07:39:43;;;;;;;4.80;4.40;;;;;;;44.55;24.99;100143.70;104317;1268;65117;-64
2023/08/04 07:42:10;;;;;;;5.20;4.80;;;;;;;44.57;25.08;100146.89;104612;1267;59279;-62
2023/08/04 07:44:37;;;;;;;5.10;4.40;;;;;;;44.51;25.12;100145.73;105137;1265;64374;-64
2023/08/04 07:47:04;;;;;;;5.00;4.60;;;;;;;44.36;24.98;100146.27;104669;1270;60312;-63
2023/08/04 07:49:31;;;;;;;4.60;4.20;;;;;;;44.34;25.07;100144.98;104494;1270;60881;-63
2023/08/04 07:51:58;;;;;;;4.20;3.90;;;;;;;44.41;24.85;100148.24;104390;1269;65444;-60
2023/08/04 07:54:25;;;;;;;4.70;4.30;;;;;;;44.37;24.50;100146.73;104920;1265;60700;-62
2023/08/04 07:56:52;;;;;;;4.60;4.10;;;;;;;44.36;24.20;100148.94;104691;1269;63983;-62
2023/08/04 07:59:19;;;;;;;5.00;3.80;;;;;;;44.48;24.08;100145.23;104129;1270;60455;-64
2023/08/04 08:01:46;;;;;;;4.00;3.60;;;;;;;44.62;23.80;100147.20;104631;1267;60446;-62
2023/08/04 08:04:14;;;;;;;4.10;3.70;;;;;;;44.59;23.85;100144.89;104804;1266;65109;-61
2023/08/04 08:06:41;;;;;;;5.00;4.20;;;;;;;44.54;23.25;100142.54;104961;1268;60449;-64
2023/08/04 08:09:11;;;;;;;4.20;3.90;;;;;;;44.50;23.17;100141.02;104313;1270;64821;-66
2023/08/04 08:11:38;;;;;;;4.30;3.70;;;;;;;44.42;23.54;100139.90;105260;1268;60510;-65
2023/08/04 08:14:05;;;;;;;4.00;3.60;;;;;;;44.44;23.45;100139.55;104849;1265;60398;-64
2023/08/04 08:16:32;;;;;;;4.00;3.60;;;;;;;44.53;23.34;100139.25;105068;1267;63862;-63
2023/08/04 08:19:01;;;;;;;4.10;3.70;;;;;;;44.55;23.06;100141.57;104918;1270;60570;-66
2023/08/04 08:21:28;;;;;;;4.30;3.90;;;;;;;44.53;23.36;100142.64;104626;1265;64207;-64
2023/08/04 08:23:57;;;;;;;4.00;3.70;;;;;;;44.55;23.33;100145.66;104871;1265;60498;-62
2023/08/04 08:26:24;;;;;;;4.50;4.00;;;;;;;44.57;22.92;100148.30;104836;1267;60481;-64
2023/08/04 08:28:51;;;;;;;4.40;3.80;;;;;;;44.58;23.57;100148.60;105031;1265;65474;-65
2023/08/04 08:31:18;;;;;;;4.10;3.70;;;;;;;44.61;23.32;100150.74;104927;1269;60518;-64
2023/08/04 08:33:45;;;;;;;4.20;3.80;;;;;;;44.55;23.19;100151.55;104847;1265;64231;-62
2023/08/04 08:36:12;;;;;;;4.30;3.90;;;;;;;44.34;23.22;100150.48;104755;1265;60462;-62
2023/08/04 08:38:39;;;;;;;4.50;4.10;;;;;;;44.23;24.00;100152.73;105386;1267;60561;-64
2023/08/04 08:41:07;;;;;;;5.00;4.00;;;;;;;44.35;23.42;100154.06;104637;1268;64700;-63
2023/08/04 08:43:34;;;;;;;4.80;4.40;;;;;;;44.45;23.30;100148.50;104924;1265;60442;-62
2023/08/04 08:46:02;;;;;;;6.80;4.50;;;;;;;44.55;23.18;100148.24;104849;1265;63001;-62
2023/08/04 08:48:30;;;;;;;6.00;4.60;;;;;;;44.68;23.24;100144.60;104887;1265;60488;-61
2023/08/04 08:51:00;;;;;;;4.80;4.20;;;;;;;44.74;23.11;100145.83;105061;1265;60571;-65
2023/08/04 08:53:29;;;;;;;4.30;3.90;;;;;;;44.77;23.01;100148.69;104934;1265;66171;-62
2023/08/04 08:55:59;;;;;;;4.70;4.10;;;;;;;44.83;22.59;100143.34;104772;1268;60452;-62
2023/08/04 08:58:28;;;;;;;4.70;3.70;;;;;;;44.81;22.98;100148.86;104864;1265;62866;-63
2023/08/04 09:00:55;;;;;;;4.20;3.80;;;;;;;44.89;22.93;100151.39;105278;1265;60452;-64
2023/08/04 09:03:22;;;;;;;5.50;5.00;;;;;;;44.89;22.55;100152.89;104561;1265;60462;-63
2023/08/04 09:05:49;;;;;;;6.30;4.30;;;;;;;44.93;22.90;100151.71;104952;1265;64959;-63
2023/08/04 09:08:16;;;;;;;4.40;3.90;;;;;;;45.06;23.03;100157.55;104630;1267;60459;-63
2023/08/04 09:10:44;;;;;;;4.20;3.80;;;;;;;45.22;22.60;100159.61;104939;1269;62817;-66
2023/08/04 09:13:11;;;;;;;4.00;3.60;;;;;;;45.23;22.31;100157.86;104592;1266;59592;-63
2023/08/04 09:15:48;;;;;;;4.00;3.60;;;;;;;45.09;21.88;100154.73;104948;1269;60390;-63
2023/08/04 09:18:28;;;;;;;3.80;3.50;;;;;;;44.65;22.30;100156.20;105061;1264;65375;-65
2023/08/04 09:21:08;;;;;;;4.00;3.60;;;;;;;44.35;23.20;100155.33;104776;1267;60488;-64
2023/08/04 09:23:41;;;;;;;;;;;;;;;44.31;23.01;100158.07;104622;1270;64106;-62
2023/08/04 09:26:08;;;;;;;5.50;3.50;;;;;;;44.02;22.59;100157.11;104604;1270;60683;-63
2023/08/04 09:28:35;;;;;;;3.90;3.50;;;;;;;43.63;23.50;100158.23;104954;1265;59144;-64
2023/08/04 09:31:03;;;;;;;3.90;3.40;;;;;;;43.57;23.91;100158.07;104885;1269;74130;-63
2023/08/04 09:33:34;;;;;;;4.70;3.50;;;;;;;43.75;23.92;100158.88;104788;1265;60575;-63
2023/08/04 09:36:06;;;;;;;4.00;3.40;;;;;;;43.90;23.46;100160.65;105123;1265;64146;-65
2023/08/04 09:38:33;;;;;;;3.90;3.50;;;;;;;43.98;23.45;100164.48;104882;1269;60091;-66
2023/08/04 09:41:11;;;;;;;4.30;3.90;;;;;;;43.85;22.78;100161.66;104757;1269;59193;-62
2023/08/04 09:43:45;;;;;;;4.80;3.70;;;;;;;43.31;23.23;100160.45;104487;1273;65361;-63
2023/08/04 09:46:12;;;;;;;4.60;4.00;;;;;;;42.90;24.08;100160.53;105084;1270;65772;-67
2023/08/04 09:48:40;;;;;;;5.20;4.50;;;;;;;42.71;24.58;100160.30;104584;1265;63503;-64
2023/08/04 09:51:11;;;;;;;6.80;3.90;;;;;;;42.52;24.76;100161.54;104714;1267;60572;-63
2023/08/04 09:53:38;;;;;;;4.60;3.50;;;;;;;42.38;25.14;100157.03;104818;1269;60368;-67
2023/08/04 09:56:06;;;;;;;4.00;3.60;;;;;;;42.44;25.77;100159.55;104868;1265;65461;-63
2023/08/04 09:58:34;;;;;;;4.30;3.90;;;;;;;42.57;24.83;100153.73;105289;1265;60565;-65
2023/08/04 10:01:04;;;;;;;4.20;3.80;;;;;;;42.50;25.10;100155.13;104789;1265;64043;-64
2023/08/04 10:03:32;;;;;;;;;;;;;;;42.49;24.97;100154.65;104696;1266;60452;-63
2023/08/04 10:06:06;;;;;;;4.30;3.40;;;;;;;42.31;25.46;100158.55;104610;1280;59244;-65
2023/08/04 10:08:36;;;;;;;4.00;3.60;;;;;;;42.16;25.42;100153.77;104718;1269;64908;-63
2023/08/04 10:11:03;;;;;;;4.70;3.60;;;;;;;42.03;25.34;100151.26;104723;1267;60466;-63
2023/08/04 10:13:33;;;;;;;3.60;3.20;;;;;;;42.01;25.79;100152.52;104820;1265;64181;-63
2023/08/04 10:16:04;;;;;;;3.90;3.40;;;;;;;42.04;25.54;100151.55;104919;1267;60587;-63
2023/08/04 10:18:51;;;;;;;4.20;3.40;;;;;;;42.02;25.62;100154.23;104511;1267;61056;-63
2023/08/04 10:21:20;;;;;;;4.10;3.50;;;;;;;41.99;25.06;100152.91;104773;1270;65273;-66
2023/08/04 10:23:47;;;;;;;3.90;3.50;;;;;;;41.87;25.47;100153.61;104395;1270;60442;-67
2023/08/04 10:26:14;;;;;;;3.80;3.40;;;;;;;41.71;25.21;100161.08;104779;1270;64053;-64
2023/08/04 10:29:04;;;;;;;8.80;3.80;;;;;;;41.50;25.51;100157.73;104907;1271;60463;-63
2023/08/04 10:31:55;;;;;;;4.60;4.00;;;;;;;41.41;26.17;100153.35;105000;1265;60423;-65
2023/08/04 10:34:31;;;;;;;3.80;3.20;;;;;;;41.08;26.33;100153.48;104589;1271;65285;-64
2023/08/04 10:37:06;;;;;;;3.60;3.30;;;;;;;40.85;26.75;100154.20;105169;1270;60485;-64
2023/08/04 10:39:37;;;;;;;4.10;3.40;;;;;;;40.82;26.81;100155.29;104845;1267;62951;-63
2023/08/04 10:42:26;;;;;;;5.90;3.30;;;;;;;40.78;26.93;100157.94;104602;1270;60408;-63
2023/08/04 10:44:54;;;;;;;5.00;3.70;;;;;;;40.68;26.99;100155.67;104474;1270;60532;-64
2023/08/04 10:47:42;;;;;;;3.60;3.20;;;;;;;40.63;27.65;100156.92;104904;1269;65319;-63
2023/08/04 10:50:29;;;;;;;5.20;3.30;;;;;;;40.78;27.38;100155.45;104968;1268;60475;-64
2023/08/04 10:52:56;;;;;;;5.50;3.30;;;;;;;40.77;26.70;100157.33;104574;1271;64599;-63
2023/08/04 10:55:25;;;;;;;4.10;3.30;;;;;;;40.69;26.58;100159.20;104936;1269;60499;-62
2023/08/04 10:57:53;;;;;;;5.40;3.40;;;;;;;40.51;26.27;100159.70;104966;1267;60574;-64
2023/08/04 11:00:20;;;;;;;4.30;3.30;;;;;;;40.34;26.74;100156.09;104684;1265;66174;-63
2023/08/04 11:02:47;;;;;;;3.60;3.00;;;;;;;40.35;27.33;100161.09;105072;1269;60561;-64
2023/08/04 11:05:14;;;;;;;5.70;2.90;;;;;;;40.34;27.64;100158.50;105044;1265;62858;-63
2023/08/04 11:07:46;;;;;;;4.30;3.00;;;;;;;40.40;27.98;100155.16;105167;1270;59675;-67
2023/08/04 11:10:13;;;;;;;3.70;3.10;;;;;;;40.57;27.86;100153.71;105150;1265;60871;-63
2023/08/04 11:12:40;;;;;;;4.80;3.30;;;;;;;40.70;27.11;100154.20;104889;1270;65479;-64
2023/08/04 11:15:11;;;;;;;5.60;3.00;;;;;;;40.69;26.93;100156.94;104831;1269;59046;-63